Terminal Aerodrome Forecast
Issued by NWS

Home | Current Version | Previous Version | Text Only | Print | Product List | Glossary On
Versions: 1 2 3 4 5 6 7 8 9 10 11 12 13 14 15 16 17 18 19
386
FTUS43 KILX 300631 AAA
TAFCMI
TAF AMD
KCMI 300631Z 3007/0106 02010KT P6SM VCSH OVC009
     FM300800 01009KT P6SM SCT006 OVC008
     FM301100 01009KT 6SM BR VCSH OVC006
     FM301700 02011KT 6SM -SHRA BR SCT006 OVC012
     FM010300 01008KT 5SM BR VCSH BKN006 OVC012=

USA.gov is the U.S. government's official web portal to all federal, state and local government web resources and services.